createdAt,value
2023-04-14T00:00:48.061Z,4.20
2023-04-14T00:03:15.473Z,4.20
2023-04-14T00:05:42.541Z,4.20
2023-04-14T00:08:09.509Z,4.20
2023-04-14T00:10:38.860Z,4.20
2023-04-14T00:13:07.344Z,4.20
2023-04-14T00:15:34.405Z,4.20
2023-04-14T00:18:01.475Z,4.30
2023-04-14T00:20:28.454Z,4.40
2023-04-14T00:22:55.571Z,4.40
2023-04-14T00:25:22.485Z,4.40
2023-04-14T00:27:49.424Z,4.40
2023-04-14T00:30:16.702Z,4.40
2023-04-14T00:32:44.104Z,4.40
2023-04-14T00:35:11.079Z,4.40
2023-04-14T00:37:38.032Z,4.40
2023-04-14T00:40:05.683Z,4.40
2023-04-14T00:42:32.693Z,4.40
2023-04-14T00:44:59.643Z,4.40
2023-04-14T00:47:27.134Z,4.40
2023-04-14T00:49:54.219Z,4.40
2023-04-14T00:52:23.654Z,4.30
2023-04-14T00:54:50.909Z,4.20
2023-04-14T00:57:18.256Z,4.10
2023-04-14T00:59:47.293Z,3.90
2023-04-14T01:02:14.288Z,3.80
2023-04-14T01:04:53.459Z,3.70
2023-04-14T01:07:23.198Z,3.60
2023-04-14T01:09:52.808Z,3.60
2023-04-14T01:12:50.909Z,3.60
2023-04-14T01:15:58.802Z,3.60
2023-04-14T01:18:55.378Z,3.60
2023-04-14T01:21:27.685Z,3.50
2023-04-14T01:24:36.549Z,3.50
2023-04-14T01:27:26.790Z,3.40
2023-04-14T01:30:49.601Z,3.30
2023-04-14T01:33:22.689Z,3.30
2023-04-14T01:35:57.486Z,3.20
2023-04-14T01:38:28.053Z,3.20
2023-04-14T01:41:00.036Z,3.10
2023-04-14T01:43:31.141Z,3.10
2023-04-14T01:46:02.950Z,3.10
2023-04-14T01:51:17.578Z,3.20
2023-04-14T01:56:27.977Z,3.20
2023-04-14T01:58:56.357Z,3.20
2023-04-14T02:01:25.607Z,3.10
2023-04-14T02:03:54.088Z,3.10
2023-04-14T02:06:24.945Z,3.10
2023-04-14T02:08:52.496Z,3.20
2023-04-14T02:11:20.793Z,3.20
2023-04-14T02:13:49.468Z,3.40
2023-04-14T02:16:17.746Z,3.40
2023-04-14T02:18:46.458Z,3.40
2023-04-14T02:21:16.484Z,3.40
2023-04-14T02:23:43.532Z,3.30
2023-04-14T02:26:23.314Z,3.40
2023-04-14T02:28:54.187Z,3.50
2023-04-14T02:31:25.463Z,3.50
2023-04-14T02:33:55.362Z,3.50
2023-04-14T02:36:34.819Z,3.50
2023-04-14T02:39:10.725Z,3.50
2023-04-14T02:41:41.604Z,3.40
2023-04-14T02:44:18.724Z,3.30
2023-04-14T02:47:07.797Z,3.30
2023-04-14T02:49:39.265Z,3.20
2023-04-14T02:52:09.727Z,3.10
2023-04-14T02:54:39.442Z,3.00
2023-04-14T02:57:07.314Z,2.90
2023-04-14T02:59:35.378Z,2.90
2023-04-14T03:02:06.278Z,2.90
2023-04-14T03:04:36.751Z,2.80
2023-04-14T03:07:06.138Z,2.90
2023-04-14T03:09:33.927Z,2.90
2023-04-14T03:12:03.251Z,3.00
2023-04-14T03:14:31.806Z,3.00
2023-04-14T03:16:59.976Z,3.00
2023-04-14T03:19:29.368Z,3.00
2023-04-14T03:21:59.116Z,3.10
2023-04-14T03:24:31.016Z,3.10
2023-04-14T03:27:04.672Z,3.20
2023-04-14T03:29:46.917Z,3.10
2023-04-14T03:32:16.628Z,3.00
2023-04-14T03:34:46.882Z,3.00
2023-04-14T03:37:18.188Z,2.90
2023-04-14T03:39:47.649Z,2.90
2023-04-14T03:42:16.650Z,2.90
2023-04-14T03:44:50.150Z,2.80
2023-04-14T03:47:18.880Z,2.70
2023-04-14T03:49:49.146Z,2.60
2023-04-14T03:52:21.105Z,2.50
2023-04-14T03:54:50.947Z,2.40
2023-04-14T03:57:19.044Z,2.40
2023-04-14T03:59:48.510Z,2.40
2023-04-14T04:02:18.047Z,2.30
2023-04-14T04:04:46.173Z,2.30
2023-04-14T04:07:14.010Z,2.30
2023-04-14T04:09:42.922Z,2.20
2023-04-14T04:12:11.800Z,2.20
2023-04-14T04:14:40.637Z,2.20
2023-04-14T04:17:09.306Z,2.20
2023-04-14T04:19:37.520Z,2.20
2023-04-14T04:22:05.354Z,2.10
2023-04-14T04:24:38.224Z,2.10
2023-04-14T04:27:09.921Z,2.00
2023-04-14T04:29:41.701Z,2.00
2023-04-14T04:32:09.382Z,2.00
2023-04-14T04:34:37.750Z,1.90
2023-04-14T04:37:05.676Z,1.90
2023-04-14T04:39:32.629Z,2.00
2023-04-14T04:42:04.110Z,2.00
2023-04-14T04:44:34.941Z,2.10
2023-04-14T04:47:02.319Z,2.10
2023-04-14T04:49:29.440Z,2.10
2023-04-14T04:51:59.961Z,2.00
2023-04-14T04:54:27.259Z,2.00
2023-04-14T04:56:54.274Z,2.00
2023-04-14T04:59:21.204Z,2.20
2023-04-14T05:01:48.328Z,2.60
2023-04-14T05:04:15.909Z,3.00
2023-04-14T05:06:44.394Z,3.50
2023-04-14T05:09:11.460Z,3.90
2023-04-14T05:11:39.137Z,4.50
2023-04-14T05:14:06.505Z,5.00
2023-04-14T05:16:33.650Z,5.40
2023-04-14T05:19:01.113Z,5.80
2023-04-14T05:21:28.418Z,6.40
2023-04-14T05:23:55.366Z,6.90
2023-04-14T05:26:44.755Z,7.30
2023-04-14T05:29:10.832Z,7.70
2023-04-14T05:31:37.914Z,8.10
2023-04-14T05:34:05.125Z,8.30
2023-04-14T05:36:32.273Z,8.40
2023-04-14T05:39:01.974Z,8.40
2023-04-14T05:41:28.925Z,8.50
2023-04-14T05:43:56.788Z,8.60
2023-04-14T05:46:24.000Z,8.80
2023-04-14T05:48:50.936Z,8.90
2023-04-14T05:51:18.300Z,9.20
2023-04-14T05:53:47.798Z,9.40
2023-04-14T05:56:14.689Z,9.60
2023-04-14T05:58:41.694Z,9.40
2023-04-14T06:01:08.959Z,9.20
2023-04-14T06:03:38.464Z,9.30
2023-04-14T06:06:06.766Z,9.50
2023-04-14T06:08:34.358Z,9.60
2023-04-14T06:11:01.370Z,9.40
2023-04-14T06:13:31.174Z,9.40
2023-04-14T06:15:59.584Z,9.50
2023-04-14T06:18:26.752Z,9.70
2023-04-14T06:20:54.978Z,9.90
2023-04-14T06:23:21.977Z,9.70
2023-04-14T06:25:48.948Z,9.40
2023-04-14T06:28:16.092Z,9.30
2023-04-14T06:30:44.798Z,9.50
2023-04-14T06:33:12.207Z,9.40
2023-04-14T06:35:39.477Z,9.10
2023-04-14T06:38:06.498Z,8.90
2023-04-14T06:40:33.357Z,9.00
2023-04-14T06:43:00.302Z,9.10
2023-04-14T06:45:27.300Z,9.40
2023-04-14T06:47:55.102Z,9.60
2023-04-14T06:50:22.231Z,9.80
2023-04-14T06:52:50.263Z,10.00
2023-04-14T06:55:17.153Z,10.50
2023-04-14T06:57:45.276Z,11.20
2023-04-14T07:00:13.074Z,11.90
2023-04-14T07:02:40.855Z,12.60
2023-04-14T07:05:08.413Z,13.10
2023-04-14T07:07:37.805Z,13.40
2023-04-14T07:10:05.405Z,13.80
2023-04-14T07:12:33.442Z,14.20
2023-04-14T07:15:00.472Z,14.80
2023-04-14T07:17:27.459Z,14.90
2023-04-14T07:19:54.533Z,14.40
2023-04-14T07:22:21.523Z,14.00
2023-04-14T07:24:48.502Z,13.90
2023-04-14T07:27:15.956Z,14.50
2023-04-14T07:29:44.054Z,15.10
2023-04-14T07:32:13.503Z,15.50
2023-04-14T07:34:44.286Z,15.90
2023-04-14T07:37:12.502Z,16.30
2023-04-14T07:39:39.883Z,17.00
2023-04-14T07:42:07.037Z,17.10
2023-04-14T07:44:34.222Z,17.20
2023-04-14T07:47:01.305Z,17.50
2023-04-14T07:49:28.458Z,17.60
2023-04-14T07:51:57.007Z,18.20
2023-04-14T07:54:24.376Z,18.80
2023-04-14T07:56:53.712Z,19.30
2023-04-14T07:59:21.093Z,19.60
2023-04-14T08:01:48.645Z,19.80
2023-04-14T08:04:15.951Z,20.00
2023-04-14T08:06:43.066Z,20.60
2023-04-14T08:09:10.349Z,21.00
2023-04-14T08:11:37.288Z,21.50
2023-04-14T08:14:04.802Z,21.50
2023-04-14T08:16:32.875Z,21.00
2023-04-14T08:19:00.480Z,21.10
2023-04-14T08:21:27.963Z,21.60
2023-04-14T08:23:54.989Z,22.20
2023-04-14T08:26:22.838Z,22.40
2023-04-14T08:28:51.107Z,22.80
2023-04-14T08:31:20.848Z,22.40
2023-04-14T08:33:49.146Z,21.50
2023-04-14T08:36:16.602Z,20.80
2023-04-14T08:38:43.616Z,19.80
2023-04-14T08:41:13.642Z,20.20
2023-04-14T08:43:40.769Z,21.30
2023-04-14T08:46:11.886Z,21.90
2023-04-14T08:48:39.885Z,21.60
2023-04-14T08:51:45.923Z,21.20
2023-04-14T08:54:15.796Z,21.20
2023-04-14T08:56:43.930Z,21.10
2023-04-14T08:59:11.936Z,21.40
2023-04-14T09:01:39.685Z,21.60
2023-04-14T09:04:08.456Z,22.00
2023-04-14T09:06:36.589Z,22.20
2023-04-14T09:09:07.871Z,21.90
2023-04-14T09:11:35.161Z,21.30
2023-04-14T09:14:02.356Z,20.90
2023-04-14T09:16:31.232Z,21.40
2023-04-14T09:19:07.040Z,21.80
2023-04-14T09:21:51.847Z,22.40
2023-04-14T09:24:25.072Z,22.30
2023-04-14T09:26:53.018Z,21.60
2023-04-14T09:29:20.222Z,21.10
2023-04-14T09:31:47.879Z,20.80
2023-04-14T09:34:20.534Z,20.10
2023-04-14T09:37:05.438Z,19.10
2023-04-14T09:39:33.546Z,18.80
2023-04-14T09:42:02.027Z,19.30
2023-04-14T09:44:30.233Z,20.00
2023-04-14T09:47:05.764Z,19.80
2023-04-14T09:49:33.311Z,20.20
2023-04-14T09:52:10.058Z,20.30
2023-04-14T09:54:39.899Z,19.30
2023-04-14T09:57:07.621Z,19.40
2023-04-14T09:59:36.890Z,20.00
2023-04-14T10:02:06.802Z,20.30
2023-04-14T10:04:34.301Z,20.50
2023-04-14T10:07:01.990Z,19.30
2023-04-14T10:09:30.045Z,17.60
2023-04-14T10:12:29.578Z,17.10
2023-04-14T10:14:56.573Z,17.10
2023-04-14T10:17:23.564Z,17.70
2023-04-14T10:19:50.620Z,17.90
2023-04-14T10:22:19.192Z,17.20
2023-04-14T10:24:49.257Z,16.40
2023-04-14T10:27:16.621Z,16.70
2023-04-14T10:29:43.644Z,17.10
2023-04-14T10:32:15.099Z,17.50
2023-04-14T10:35:00.081Z,17.20
2023-04-14T10:37:27.047Z,17.10
2023-04-14T10:39:58.587Z,16.80
2023-04-14T10:42:26.289Z,16.40
2023-04-14T10:45:10.297Z,16.30
2023-04-14T10:47:40.778Z,16.40
2023-04-14T10:50:16.083Z,16.60
2023-04-14T10:52:56.447Z,17.30
2023-04-14T10:55:28.125Z,17.80
2023-04-14T10:58:08.591Z,17.30
2023-04-14T11:00:42.398Z,17.70
2023-04-14T11:03:12.286Z,18.00
2023-04-14T11:05:46.058Z,18.00
2023-04-14T11:08:24.994Z,17.10
2023-04-14T11:11:01.994Z,16.90
2023-04-14T11:13:30.797Z,16.60
2023-04-14T11:16:05.615Z,17.10
2023-04-14T11:18:39.836Z,17.60
2023-04-14T11:21:09.037Z,17.60
2023-04-14T11:23:37.671Z,17.90
2023-04-14T11:26:12.443Z,18.30
2023-04-14T11:28:42.632Z,18.50
2023-04-14T11:31:12.311Z,18.80
2023-04-14T11:33:42.105Z,19.00
2023-04-14T11:36:11.412Z,19.10
2023-04-14T11:38:41.662Z,19.20
2023-04-14T11:41:09.369Z,19.10
2023-04-14T11:43:38.067Z,19.20
2023-04-14T11:46:06.194Z,19.50
2023-04-14T11:48:33.222Z,19.70
2023-04-14T11:51:03.920Z,19.30
2023-04-14T11:53:32.280Z,18.50
2023-04-14T11:56:00.882Z,17.70
2023-04-14T11:58:29.011Z,17.60
2023-04-14T12:01:16.454Z,17.30
2023-04-14T12:03:43.879Z,17.10
2023-04-14T12:06:10.959Z,16.40
2023-04-14T12:08:37.998Z,16.60
2023-04-14T12:11:15.267Z,17.20
2023-04-14T12:13:43.811Z,17.70
2023-04-14T12:16:15.236Z,18.20
2023-04-14T12:18:43.262Z,18.60
2023-04-14T12:21:12.139Z,18.90
2023-04-14T12:23:40.800Z,18.90
2023-04-14T12:26:14.094Z,18.70
2023-04-14T12:28:45.150Z,18.50
2023-04-14T12:31:12.636Z,18.30
2023-04-14T12:33:40.097Z,17.80
2023-04-14T12:36:11.797Z,17.50
2023-04-14T12:38:39.141Z,16.90
2023-04-14T12:41:06.128Z,16.60
2023-04-14T12:43:38.652Z,16.40
2023-04-14T12:46:07.847Z,16.40
2023-04-14T12:48:48.660Z,16.50
2023-04-14T12:51:22.252Z,16.20
2023-04-14T12:53:50.524Z,16.00
2023-04-14T12:56:22.813Z,15.90
2023-04-14T12:58:51.341Z,15.30
2023-04-14T13:01:21.059Z,15.20
2023-04-14T13:03:57.977Z,15.10
2023-04-14T13:06:25.958Z,15.10
2023-04-14T13:08:54.408Z,15.40
2023-04-14T13:11:23.661Z,15.40
2023-04-14T13:13:52.556Z,15.50
2023-04-14T13:16:20.087Z,15.70
2023-04-14T13:18:49.064Z,15.60
2023-04-14T13:21:16.931Z,15.90
2023-04-14T13:23:44.448Z,15.90
2023-04-14T13:26:11.874Z,15.80
2023-04-14T13:28:39.429Z,15.60
2023-04-14T13:31:07.518Z,15.60
2023-04-14T13:33:34.855Z,15.60
2023-04-14T13:36:03.264Z,15.40
2023-04-14T13:38:31.152Z,15.10
2023-04-14T13:40:58.277Z,14.90
2023-04-14T13:43:25.331Z,14.90
2023-04-14T13:45:53.682Z,14.90
2023-04-14T13:48:20.832Z,15.10
2023-04-14T13:50:49.665Z,15.20
2023-04-14T13:53:17.940Z,15.20
2023-04-14T13:55:45.066Z,15.20
2023-04-14T13:58:12.084Z,15.20
2023-04-14T14:00:40.787Z,15.20
2023-04-14T14:03:07.970Z,15.20
2023-04-14T14:05:35.312Z,15.20
2023-04-14T14:08:03.361Z,15.20
2023-04-14T14:10:31.862Z,15.30
2023-04-14T14:12:58.856Z,15.30
2023-04-14T14:15:26.220Z,14.90
2023-04-14T14:17:55.157Z,14.80
2023-04-14T14:20:22.296Z,14.80
2023-04-14T14:22:49.235Z,14.90
2023-04-14T14:25:20.956Z,15.00
2023-04-14T14:27:50.485Z,15.20
2023-04-14T14:30:18.164Z,15.20
2023-04-14T14:32:45.815Z,15.20
2023-04-14T14:35:13.316Z,15.20
2023-04-14T14:37:41.015Z,15.20
2023-04-14T14:40:08.841Z,15.10
2023-04-14T14:42:36.048Z,15.30
2023-04-14T14:45:03.890Z,15.40
2023-04-14T14:47:31.089Z,15.30
2023-04-14T14:50:08.477Z,15.20
2023-04-14T14:52:35.972Z,15.20
2023-04-14T14:55:03.701Z,15.00
2023-04-14T14:57:31.005Z,14.90
2023-04-14T14:59:58.122Z,15.00
2023-04-14T15:02:26.023Z,15.00
2023-04-14T15:04:55.764Z,15.10
2023-04-14T15:07:22.775Z,15.00
2023-04-14T15:09:50.629Z,15.00
2023-04-14T15:12:18.251Z,14.80
2023-04-14T15:14:45.428Z,14.90
2023-04-14T15:17:12.446Z,15.00
2023-04-14T15:19:39.713Z,15.10
2023-04-14T15:22:07.709Z,15.20
2023-04-14T15:24:34.716Z,15.30
2023-04-14T15:27:02.724Z,15.30
2023-04-14T15:29:30.643Z,15.40
2023-04-14T15:31:57.833Z,15.40
2023-04-14T15:34:27.075Z,15.30
2023-04-14T15:36:54.443Z,15.30
2023-04-14T15:39:21.583Z,15.40
2023-04-14T15:41:50.522Z,15.50
2023-04-14T15:44:18.293Z,15.40
2023-04-14T15:46:45.605Z,15.20
2023-04-14T15:49:12.567Z,15.10
2023-04-14T15:51:39.502Z,15.10
2023-04-14T15:54:06.993Z,15.00
2023-04-14T15:56:34.052Z,15.10
2023-04-14T15:59:01.054Z,15.00
2023-04-14T16:01:28.150Z,14.80
2023-04-14T16:03:55.696Z,14.70
2023-04-14T16:06:23.425Z,14.60
2023-04-14T16:08:50.506Z,14.60
2023-04-14T16:11:18.061Z,14.60
2023-04-14T16:13:45.844Z,14.50
2023-04-14T16:16:14.611Z,14.50
2023-04-14T16:18:42.536Z,14.50
2023-04-14T16:21:09.562Z,14.50
2023-04-14T16:23:36.785Z,14.50
2023-04-14T16:26:03.942Z,14.50
2023-04-14T16:28:31.131Z,14.60
2023-04-14T16:31:03.206Z,14.60
2023-04-14T16:33:33.366Z,14.60
2023-04-14T16:36:04.923Z,14.60
2023-04-14T16:38:32.168Z,14.60
2023-04-14T16:41:01.008Z,14.60
2023-04-14T16:43:28.262Z,14.50
2023-04-14T16:46:04.412Z,14.50
2023-04-14T16:48:32.684Z,14.50
2023-04-14T16:51:11.209Z,14.40
2023-04-14T16:53:39.212Z,14.40
2023-04-14T16:56:10.185Z,14.40
2023-04-14T16:58:39.152Z,14.40
2023-04-14T17:01:06.604Z,14.40
2023-04-14T17:03:36.675Z,14.30
2023-04-14T17:06:04.205Z,14.40
2023-04-14T17:08:34.044Z,14.30
2023-04-14T17:11:01.319Z,14.30
2023-04-14T17:13:31.561Z,14.30
2023-04-14T17:16:08.126Z,14.20
2023-04-14T17:18:36.687Z,14.20
2023-04-14T17:21:04.479Z,14.10
2023-04-14T17:23:32.143Z,14.00
2023-04-14T17:26:00.583Z,14.00
2023-04-14T17:28:27.851Z,13.90
2023-04-14T17:30:56.179Z,13.90
2023-04-14T17:33:27.630Z,13.90
2023-04-14T17:35:55.841Z,13.80
2023-04-14T17:38:23.590Z,13.80
2023-04-14T17:40:51.891Z,13.70
2023-04-14T17:43:18.952Z,13.70
2023-04-14T17:45:50.323Z,13.60
2023-04-14T17:48:18.149Z,13.60
2023-04-14T17:50:45.645Z,13.60
2023-04-14T17:53:13.692Z,13.50
2023-04-14T17:55:41.101Z,13.40
2023-04-14T17:58:12.151Z,13.20
2023-04-14T18:00:39.454Z,13.10
2023-04-14T18:03:06.505Z,13.00
2023-04-14T18:05:33.563Z,12.80
2023-04-14T18:08:00.482Z,12.70
2023-04-14T18:10:29.045Z,12.60
2023-04-14T18:12:56.614Z,12.50
2023-04-14T18:15:23.824Z,12.50
2023-04-14T18:17:51.400Z,12.40
2023-04-14T18:20:24.853Z,12.30
2023-04-14T18:22:57.669Z,12.10
2023-04-14T18:25:24.725Z,12.00
2023-04-14T18:30:21.866Z,11.70
2023-04-14T18:32:51.050Z,11.50
2023-04-14T18:35:18.673Z,11.40
2023-04-14T18:37:46.498Z,11.30
2023-04-14T18:40:13.444Z,11.20
2023-04-14T18:42:40.556Z,11.00
2023-04-14T18:45:08.897Z,10.90
2023-04-14T18:47:35.880Z,10.80
2023-04-14T18:50:04.286Z,10.70
2023-04-14T18:52:31.578Z,10.60
2023-04-14T18:54:58.532Z,10.50
2023-04-14T18:57:25.713Z,10.40
2023-04-14T18:59:53.549Z,10.30
2023-04-14T19:02:20.854Z,10.20
2023-04-14T19:04:47.854Z,10.20
2023-04-14T19:07:14.868Z,10.20
2023-04-14T19:09:41.977Z,10.20
2023-04-14T19:12:21.770Z,10.20
2023-04-14T19:14:54.968Z,10.30
2023-04-14T19:17:22.279Z,10.30
2023-04-14T19:19:49.361Z,10.30
2023-04-14T19:22:17.650Z,10.40
2023-04-14T19:24:45.060Z,10.40
2023-04-14T19:27:12.253Z,10.50
2023-04-14T19:29:39.269Z,10.60
2023-04-14T19:32:06.591Z,10.70
2023-04-14T19:34:33.640Z,10.70
2023-04-14T19:37:00.627Z,10.70
2023-04-14T19:39:27.570Z,10.80
2023-04-14T19:41:54.630Z,10.90
2023-04-14T19:44:21.597Z,11.00
2023-04-14T19:46:48.539Z,11.00
2023-04-14T19:49:15.700Z,11.10
2023-04-14T19:51:43.223Z,11.20
2023-04-14T19:54:10.268Z,11.30
2023-04-14T19:56:37.938Z,11.40
2023-04-14T19:59:05.587Z,11.50
2023-04-14T20:01:32.580Z,11.50
2023-04-14T20:04:05.587Z,11.50
2023-04-14T20:06:39.552Z,11.50
2023-04-14T20:09:06.652Z,11.50
2023-04-14T20:11:33.622Z,11.40
2023-04-14T20:14:01.397Z,11.40
2023-04-14T20:16:28.388Z,11.30
2023-04-14T20:18:55.651Z,11.30
2023-04-14T20:21:22.873Z,11.20
2023-04-14T20:23:49.908Z,11.20
2023-04-14T20:26:17.419Z,11.10
2023-04-14T20:28:45.590Z,11.10
2023-04-14T20:31:13.651Z,11.00
2023-04-14T20:33:40.807Z,11.00
2023-04-14T20:36:08.102Z,10.90
2023-04-14T20:38:35.583Z,10.80
2023-04-14T20:41:02.544Z,10.70
2023-04-14T20:43:34.256Z,10.70
2023-04-14T20:46:01.634Z,10.70
2023-04-14T20:48:30.478Z,10.60
2023-04-14T20:50:57.683Z,10.60
2023-04-14T20:53:26.772Z,10.50
2023-04-14T20:55:55.101Z,10.50
2023-04-14T20:58:22.168Z,10.40
2023-04-14T21:00:49.407Z,10.40
2023-04-14T21:03:17.247Z,10.40
2023-04-14T21:05:44.583Z,10.40
2023-04-14T21:08:12.680Z,10.30
2023-04-14T21:11:14.217Z,10.30
2023-04-14T21:15:40.473Z,10.30
2023-04-14T21:16:34.059Z,10.20
2023-04-14T21:19:02.419Z,10.20
2023-04-14T21:21:29.809Z,10.20
2023-04-14T21:23:56.792Z,10.10
2023-04-14T21:26:24.133Z,10.10
2023-04-14T21:28:51.398Z,10.00
2023-04-14T21:31:18.651Z,10.00
2023-04-14T21:33:47.056Z,9.90
2023-04-14T21:36:14.650Z,9.90
2023-04-14T21:38:41.596Z,9.80
2023-04-14T21:41:09.255Z,9.80
2023-04-14T21:43:39.243Z,9.80
2023-04-14T21:46:06.494Z,9.70
2023-04-14T21:48:33.477Z,9.70
2023-04-14T21:51:00.430Z,9.60
2023-04-14T21:53:27.431Z,9.50
2023-04-14T21:56:04.384Z,9.50
2023-04-14T21:58:36.698Z,9.50
2023-04-14T22:01:03.770Z,9.50
2023-04-14T22:03:30.981Z,9.40
2023-04-14T22:05:57.954Z,9.40
2023-04-14T22:08:24.903Z,9.30
2023-04-14T22:10:53.006Z,9.30
2023-04-14T22:13:19.986Z,9.30
2023-04-14T22:15:46.984Z,9.20
2023-04-14T22:18:13.884Z,9.20
2023-04-14T22:20:40.833Z,9.10
2023-04-14T22:23:07.756Z,9.00
2023-04-14T22:25:35.248Z,9.00
2023-04-14T22:28:02.149Z,8.90
2023-04-14T22:30:30.042Z,8.90
2023-04-14T22:32:57.688Z,8.80
2023-04-14T22:35:24.847Z,8.80
2023-04-14T22:37:51.823Z,8.90
2023-04-14T22:40:19.344Z,8.90
2023-04-14T22:42:48.019Z,8.80
2023-04-14T22:45:15.031Z,8.70
2023-04-14T22:47:42.017Z,8.70
2023-04-14T22:50:09.413Z,8.70
2023-04-14T22:52:36.497Z,8.60
2023-04-14T22:55:03.661Z,8.50
2023-04-14T22:57:30.673Z,8.40
2023-04-14T22:59:58.702Z,8.40
2023-04-14T23:02:26.113Z,8.40
2023-04-14T23:04:53.431Z,8.40
2023-04-14T23:07:20.436Z,8.40
2023-04-14T23:09:48.667Z,8.40
2023-04-14T23:12:16.066Z,8.40
2023-04-14T23:14:42.986Z,8.40
2023-04-14T23:17:11.871Z,8.40
2023-04-14T23:19:39.316Z,8.30
2023-04-14T23:22:06.242Z,8.30
2023-04-14T23:24:33.230Z,8.30
2023-04-14T23:27:00.559Z,8.30
2023-04-14T23:29:27.656Z,8.20
2023-04-14T23:31:55.027Z,8.20
2023-04-14T23:34:22.072Z,8.10
2023-04-14T23:36:49.612Z,8.00
2023-04-14T23:39:17.600Z,8.00
2023-04-14T23:41:44.785Z,7.90
2023-04-14T23:44:11.758Z,7.90
2023-04-14T23:46:40.836Z,7.90
2023-04-14T23:49:23.817Z,7.80
2023-04-14T23:51:51.654Z,7.80
2023-04-14T23:54:19.093Z,7.70
2023-04-14T23:56:47.445Z,7.70
2023-04-14T23:59:14.368Z,7.70
